Time;durP1;ratioP1;P1;durP2;ratioP2;P2;SDS_P1;SDS_P2;PMS_P1;PMS_P2;Temp;Humidity;BMP_temperature;BMP_pressure;BME280_temperature;BME280_humidity;BME280_pressure;Samples;Min_cycle;Max_cycle;Signal;HPM_P1;HPM_P2
2021/03/18 00:00:10;;;;;;;19.95;6.90;;;;;;;3.50;58.52;97966.00;5018370;28;20020;-78
2021/03/18 00:02:36;;;;;;;16.40;6.65;;;;;;;3.72;58.06;97959.94;5028723;28;20072;-78
2021/03/18 00:05:03;;;;;;;19.83;7.43;;;;;;;3.65;57.27;97958.25;5018627;28;20565;-78
2021/03/18 00:07:29;;;;;;;18.95;8.57;;;;;;;3.67;57.23;97953.72;5009346;28;20509;-78
2021/03/18 00:09:54;;;;;;;11.30;4.70;;;;;;;3.58;57.10;97955.59;5047327;28;20027;-78
2021/03/18 00:12:20;;;;;;;8.40;3.30;;;;;;;3.61;56.21;97957.81;5020309;28;20494;-78
2021/03/18 00:14:45;;;;;;;7.07;3.15;;;;;;;3.54;56.06;97959.50;5036826;28;20036;-78
2021/03/18 00:17:11;;;;;;;6.47;2.58;;;;;;;3.45;56.37;97960.59;5020834;28;20158;-78
2021/03/18 00:19:36;;;;;;;4.60;2.38;;;;;;;3.43;57.15;97963.34;5030717;28;20059;-78
2021/03/18 00:22:02;;;;;;;5.78;3.03;;;;;;;3.34;57.29;97957.50;5050856;28;20063;-78
2021/03/18 00:24:27;;;;;;;8.38;3.33;;;;;;;3.20;58.62;97950.56;5027752;28;20591;-78
2021/03/18 00:26:55;;;;;;;5.43;3.22;;;;;;;3.24;58.88;97959.53;5037307;28;20025;-78
2021/03/18 00:29:21;;;;;;;6.57;2.33;;;;;;;3.19;58.82;97948.97;5072475;28;20078;-78
2021/03/18 00:31:46;;;;;;;7.95;3.47;;;;;;;3.23;58.86;97949.41;5019983;28;20033;-78
2021/03/18 00:34:12;;;;;;;6.25;2.75;;;;;;;3.14;58.50;97926.34;5032816;28;20111;-78
2021/03/18 00:36:37;;;;;;;5.53;3.05;;;;;;;3.13;59.08;97923.94;5019365;28;20028;-78
2021/03/18 00:39:07;;;;;;;7.03;2.60;;;;;;;3.04;58.67;97925.03;5020923;28;20511;-78
2021/03/18 00:41:33;;;;;;;7.38;2.97;;;;;;;3.20;58.63;97922.25;5025394;28;20074;-78
2021/03/18 00:43:58;;;;;;;5.90;2.35;;;;;;;3.32;57.80;97917.47;5014141;28;20436;-78
2021/03/18 00:46:24;;;;;;;6.53;2.28;;;;;;;3.28;57.98;97905.94;5054345;28;20032;-78
2021/03/18 00:48:49;;;;;;;6.47;2.50;;;;;;;3.44;57.29;97903.16;5016521;28;20087;-77
2021/03/18 00:51:17;;;;;;;6.47;1.95;;;;;;;3.42;57.27;97909.47;5031998;28;20128;-77
2021/03/18 00:53:45;;;;;;;6.93;1.95;;;;;;;3.43;56.68;97903.31;5029452;28;20285;-77
2021/03/18 00:56:14;;;;;;;5.40;1.80;;;;;;;3.24;57.27;97900.34;5051280;28;20033;-77
2021/03/18 00:58:40;;;;;;;3.55;1.50;;;;;;;3.21;57.48;97902.47;5035774;28;20047;-77
2021/03/18 01:01:06;;;;;;;6.57;2.10;;;;;;;3.07;59.08;97899.75;5035303;28;20517;-77
2021/03/18 01:03:36;;;;;;;5.25;2.35;;;;;;;2.84;59.50;97897.22;5052279;28;20032;-77
2021/03/18 01:06:04;;;;;;;3.58;1.42;;;;;;;2.83;58.92;97905.13;5069215;28;20499;-77
2021/03/18 01:08:31;;;;;;;4.78;1.83;;;;;;;2.96;58.53;97889.88;5026995;28;20075;-77
2021/03/18 01:11:00;;;;;;;4.03;1.65;;;;;;;2.90;58.38;97883.69;5034674;28;20044;-77
2021/03/18 01:13:25;;;;;;;3.70;1.27;;;;;;;2.92;58.61;97892.00;5032634;28;20070;-77
2021/03/18 01:15:53;;;;;;;5.28;1.75;;;;;;;2.82;59.00;97891.47;5035822;28;20032;-77
2021/03/18 01:18:22;;;;;;;3.92;1.55;;;;;;;2.76;59.42;97898.13;5019207;28;20549;-77
2021/03/18 01:20:47;;;;;;;4.25;1.48;;;;;;;2.89;60.31;97909.56;5019458;28;20159;-77
2021/03/18 01:23:13;;;;;;;4.18;1.50;;;;;;;2.91;60.62;97907.63;5032320;28;20075;-77
2021/03/18 01:25:38;;;;;;;3.88;1.85;;;;;;;2.90;59.60;97906.81;5013987;28;20033;-77
2021/03/18 01:28:04;;;;;;;4.60;2.03;;;;;;;2.85;59.39;97901.41;5023894;28;20027;-77
2021/03/18 01:30:30;;;;;;;6.28;1.98;;;;;;;2.86;59.92;97904.78;5013728;28;20083;-77
2021/03/18 01:32:58;;;;;;;4.30;2.00;;;;;;;2.80;60.11;97903.72;5003680;28;20035;-77
2021/03/18 01:35:24;;;;;;;5.63;2.10;;;;;;;2.74;60.45;97906.97;5044164;28;20467;-77
2021/03/18 01:37:50;;;;;;;8.18;2.90;;;;;;;2.59;59.92;97899.28;5032966;28;20071;-76
2021/03/18 01:40:24;;;;;;;5.03;2.88;;;;;;;2.59;59.90;97909.56;5022761;28;20432;-77
2021/03/18 01:42:49;;;;;;;7.57;3.00;;;;;;;2.61;60.50;97905.03;5038687;28;20068;-77
2021/03/18 01:45:16;;;;;;;7.22;2.83;;;;;;;2.59;60.52;97910.34;5031948;28;20025;-77
2021/03/18 01:47:43;;;;;;;7.45;2.97;;;;;;;2.56;60.66;97912.47;5018196;28;20035;-77
2021/03/18 01:50:10;;;;;;;6.90;2.17;;;;;;;2.55;60.63;97921.13;5033252;28;20028;-77
2021/03/18 01:52:36;;;;;;;7.78;3.20;;;;;;;2.47;60.54;97916.88;5027795;28;20398;-77
2021/03/18 01:55:03;;;;;;;7.30;2.97;;;;;;;2.46;60.51;97911.91;5024202;28;20038;-77
2021/03/18 01:57:28;;;;;;;5.50;2.45;;;;;;;2.49;60.65;97916.72;5050487;28;20391;-77
2021/03/18 01:59:54;;;;;;;7.55;3.13;;;;;;;2.46;60.44;97912.69;5002406;28;20029;-76
2021/03/18 02:02:19;;;;;;;6.07;2.85;;;;;;;2.39;60.18;97915.16;5008991;28;20025;-76
2021/03/18 02:04:46;;;;;;;4.20;1.85;;;;;;;2.34;60.39;97914.09;5027223;28;20035;-76
2021/03/18 02:07:11;;;;;;;4.43;2.40;;;;;;;2.36;60.97;97917.28;5006826;28;20043;-76
2021/03/18 02:09:37;;;;;;;5.55;2.53;;;;;;;2.31;60.68;97924.72;5008890;28;20443;-76
2021/03/18 02:12:03;;;;;;;5.18;1.90;;;;;;;2.28;60.54;97927.63;5056967;28;20039;-76
2021/03/18 02:14:29;;;;;;;4.28;2.38;;;;;;;2.25;61.56;97923.63;5010986;28;20054;-76
2021/03/18 02:16:58;;;;;;;7.15;2.22;;;;;;;2.07;61.40;97921.34;5050905;28;20033;-77
2021/03/18 02:19:29;;;;;;;5.05;2.33;;;;;;;2.11;60.92;97927.75;5014951;28;20111;-77
2021/03/18 02:21:55;;;;;;;5.03;1.95;;;;;;;2.26;60.70;97932.94;5050349;28;20565;-77
2021/03/18 02:24:34;;;;;;;5.78;2.42;;;;;;;2.13;60.71;97932.72;5027713;28;20119;-76
2021/03/18 02:27:17;;;;;;;5.28;2.38;;;;;;;2.25;61.04;97932.13;5068713;28;20359;-76
2021/03/18 02:30:04;;;;;;;5.38;2.45;;;;;;;1.97;60.87;97936.19;5068708;28;20108;-76
2021/03/18 02:32:55;;;;;;;6.75;2.75;;;;;;;1.95;61.08;97931.22;5014764;28;20283;-76
2021/03/18 02:35:29;;;;;;;4.88;1.98;;;;;;;1.98;60.63;97918.03;5017648;28;20071;-76
2021/03/18 02:38:02;;;;;;;4.90;1.85;;;;;;;2.04;60.78;97929.41;5017926;28;20032;-76
2021/03/18 02:40:31;;;;;;;6.30;2.00;;;;;;;2.09;60.85;97921.19;5033910;28;20040;-76
2021/03/18 02:43:00;;;;;;;4.95;1.60;;;;;;;2.10;60.61;97930.50;5033088;28;20029;-76
2021/03/18 02:45:29;;;;;;;3.00;1.60;;;;;;;2.08;60.22;97940.16;5026645;28;20032;-76
2021/03/18 02:47:56;;;;;;;3.40;1.52;;;;;;;2.08;60.49;97919.59;5026820;28;20037;-76
2021/03/18 02:50:22;;;;;;;5.57;1.65;;;;;;;2.37;59.73;97924.81;5030110;28;20033;-76
2021/03/18 02:52:48;;;;;;;4.72;1.90;;;;;;;2.39;59.23;97915.16;5049586;28;20044;-76
2021/03/18 02:55:13;;;;;;;4.13;1.83;;;;;;;2.33;58.57;97918.44;5037256;28;20174;-76
2021/03/18 02:57:42;;;;;;;6.15;2.10;;;;;;;2.34;58.63;97909.75;5040991;28;20033;-76
2021/03/18 03:00:09;;;;;;;5.18;1.58;;;;;;;2.23;58.58;97917.88;5023580;28;20036;-76
2021/03/18 03:02:36;;;;;;;3.42;1.70;;;;;;;2.04;59.89;97911.44;5018170;28;20518;-76
2021/03/18 03:05:05;;;;;;;4.00;1.42;;;;;;;1.89;60.37;97911.38;5033520;28;20048;-76
2021/03/18 03:07:31;;;;;;;4.50;1.52;;;;;;;2.04;61.38;97916.56;5052608;28;20036;-76
2021/03/18 03:09:58;;;;;;;6.43;2.05;;;;;;;1.98;61.38;97920.59;5016992;28;20468;-76
2021/03/18 03:12:26;;;;;;;2.88;1.25;;;;;;;1.82;60.97;97921.50;5039911;28;20048;-76
2021/03/18 03:14:54;;;;;;;4.13;1.60;;;;;;;1.91;61.52;97922.25;5010315;28;20040;-76
2021/03/18 03:17:21;;;;;;;6.88;2.22;;;;;;;1.79;61.12;97921.06;5039879;28;20170;-76
2021/03/18 03:19:47;;;;;;;5.72;1.80;;;;;;;1.90;61.09;97927.56;5039617;28;20061;-76
2021/03/18 03:22:16;;;;;;;4.30;1.90;;;;;;;1.81;61.68;97919.91;5022988;28;20030;-76
2021/03/18 03:24:43;;;;;;;4.78;1.88;;;;;;;1.67;61.69;97921.41;5038898;28;20067;-76
2021/03/18 03:27:09;;;;;;;7.20;1.67;;;;;;;1.74;61.57;97918.19;5039916;28;20028;-76
2021/03/18 03:29:35;;;;;;;6.88;1.85;;;;;;;1.68;61.58;97920.47;5039991;28;20078;-76
2021/03/18 03:32:03;;;;;;;4.20;2.00;;;;;;;1.64;61.47;97919.19;5047726;28;20441;-76
2021/03/18 03:34:29;;;;;;;6.00;1.70;;;;;;;1.75;61.48;97915.47;5007170;28;20032;-76
2021/03/18 03:36:54;;;;;;;4.53;1.20;;;;;;;1.73;62.23;97922.53;5048704;28;20120;-76
2021/03/18 03:39:20;;;;;;;3.58;1.52;;;;;;;1.63;61.51;97917.59;5022241;28;20391;-76
2021/03/18 03:41:46;;;;;;;5.65;1.45;;;;;;;1.62;61.54;97918.56;5039318;28;20024;-76
2021/03/18 03:44:12;;;;;;;5.88;1.55;;;;;;;1.66;61.77;97912.13;5039653;28;20515;-76
2021/03/18 03:46:38;;;;;;;3.95;1.55;;;;;;;1.71;61.71;97919.31;5032720;28;20035;-76
2021/03/18 03:49:04;;;;;;;6.25;1.58;;;;;;;1.60;61.56;97915.38;5039801;28;20025;-76
2021/03/18 03:51:41;;;;;;;2.40;1.20;;;;;;;1.48;61.75;97920.06;5034748;28;20039;-76
2021/03/18 03:54:07;;;;;;;2.53;1.40;;;;;;;1.63;61.19;97917.59;5039559;28;20467;-76
2021/03/18 03:56:34;;;;;;;3.67;1.20;;;;;;;1.54;61.44;97913.47;5049452;28;20523;-76
2021/03/18 03:59:04;;;;;;;4.35;2.20;;;;;;;1.43;61.66;97916.41;5039111;28;20078;-76
2021/03/18 04:01:46;;;;;;;2.75;1.50;;;;;;;1.57;61.45;97913.13;5024073;28;20052;-76
2021/03/18 04:04:35;;;;;;;2.80;1.45;;;;;;;1.17;61.85;97904.66;5042544;28;20490;-76
2021/03/18 04:07:03;;;;;;;3.00;1.63;;;;;;;1.44;61.69;97905.16;5040967;28;20440;-76
2021/03/18 04:09:29;;;;;;;4.18;1.70;;;;;;;1.47;61.71;97902.28;5017546;28;20083;-76
2021/03/18 04:11:56;;;;;;;3.38;1.90;;;;;;;1.50;61.98;97904.50;5016576;28;20711;-76
2021/03/18 04:14:27;;;;;;;4.43;1.38;;;;;;;1.36;62.25;97900.09;5021070;28;20443;-76
2021/03/18 04:16:53;;;;;;;3.05;1.42;;;;;;;1.62;61.27;97903.16;5034617;28;20064;-76
2021/03/18 04:19:19;;;;;;;4.88;2.35;;;;;;;1.58;61.19;97904.47;5035857;28;20032;-76
2021/03/18 04:21:49;;;;;;;5.90;1.70;;;;;;;1.56;61.09;97906.41;5032590;28;20033;-76
2021/03/18 04:24:15;;;;;;;3.72;1.58;;;;;;;1.57;61.05;97902.06;5013062;28;20036;-76
2021/03/18 04:26:41;;;;;;;4.22;1.70;;;;;;;1.55;61.40;97904.81;5019153;28;20039;-76
2021/03/18 04:29:07;;;;;;;5.50;1.83;;;;;;;1.50;61.68;97896.81;5009804;28;20028;-75
2021/03/18 04:31:36;;;;;;;2.80;1.50;;;;;;;1.41;62.21;97897.84;5035180;28;20511;-75
2021/03/18 04:34:02;;;;;;;3.92;1.77;;;;;;;1.56;61.84;97900.47;5008719;28;20049;-76
2021/03/18 04:36:31;;;;;;;4.60;2.20;;;;;;;1.39;62.11;97895.44;5006395;28;20040;-75
2021/03/18 04:38:57;;;;;;;4.22;2.33;;;;;;;1.49;62.46;97903.72;5016187;28;20064;-75
2021/03/18 04:41:27;;;;;;;4.63;2.33;;;;;;;1.43;62.27;97898.47;5042763;28;20125;-75
2021/03/18 04:43:54;;;;;;;5.55;2.10;;;;;;;1.49;62.40;97898.59;5048656;28;20127;-75
2021/03/18 04:46:20;;;;;;;6.35;2.00;;;;;;;1.53;62.21;97901.63;5019439;28;20122;-75
2021/03/18 04:48:46;;;;;;;3.42;1.80;;;;;;;1.52;61.66;97894.09;5018814;28;20059;-75
2021/03/18 04:51:12;;;;;;;2.92;1.98;;;;;;;1.42;62.15;97879.72;5030719;28;20118;-75
2021/03/18 04:53:38;;;;;;;6.38;2.38;;;;;;;1.45;62.34;97887.03;5023714;28;20107;-75
2021/03/18 04:56:06;;;;;;;3.00;1.60;;;;;;;1.45;62.08;97887.03;5035169;28;20519;-75
2021/03/18 04:58:32;;;;;;;5.30;2.55;;;;;;;1.43;62.00;97895.91;5019231;28;20029;-75
2021/03/18 05:00:59;;;;;;;4.20;2.13;;;;;;;1.43;61.26;97890.75;5050099;28;20544;-75
2021/03/18 05:03:25;;;;;;;4.75;2.03;;;;;;;1.42;61.74;97891.72;5032358;28;20052;-75
2021/03/18 05:05:51;;;;;;;5.72;1.77;;;;;;;1.43;62.29;97895.91;5019493;28;20041;-75
2021/03/18 05:08:18;;;;;;;4.85;1.67;;;;;;;1.27;62.23;97887.31;5015497;28;20072;-75
2021/03/18 05:10:43;;;;;;;5.55;2.08;;;;;;;1.38;62.56;97881.00;5050867;28;20035;-75
2021/03/18 05:13:10;;;;;;;5.60;2.00;;;;;;;1.39;61.85;97890.31;5005973;28;20033;-75
2021/03/18 05:15:37;;;;;;;5.20;2.00;;;;;;;1.40;62.27;97894.44;5026859;28;20035;-75
2021/03/18 05:18:04;;;;;;;4.47;1.90;;;;;;;1.37;62.12;97883.72;5017736;28;20028;-75
2021/03/18 05:20:31;;;;;;;4.95;1.75;;;;;;;1.39;61.92;97881.78;5038907;28;20025;-75
2021/03/18 05:22:56;;;;;;;4.30;2.10;;;;;;;1.39;62.28;97885.16;5010834;28;20394;-75
2021/03/18 05:25:25;;;;;;;7.30;1.83;;;;;;;1.31;62.65;97883.44;5038068;28;20020;-75
2021/03/18 05:27:50;;;;;;;4.45;2.25;;;;;;;1.46;62.38;97891.22;5021624;28;20120;-75
2021/03/18 05:30:17;;;;;;;5.63;1.83;;;;;;;1.46;62.49;97898.91;5018345;28;20128;-75
2021/03/18 05:32:43;;;;;;;4.05;2.08;;;;;;;1.57;62.61;97892.59;5003947;28;20029;-75
2021/03/18 05:35:10;;;;;;;4.55;1.77;;;;;;;1.62;62.22;97892.91;5027211;28;20123;-75
2021/03/18 05:37:35;;;;;;;4.20;1.88;;;;;;;1.60;62.45;97884.56;5028098;28;20028;-75
2021/03/18 05:40:06;;;;;;;5.50;2.30;;;;;;;1.43;62.53;97893.31;5034628;28;20065;-75
2021/03/18 05:42:32;;;;;;;4.88;1.80;;;;;;;1.61;62.59;97891.31;5027561;28;20058;-75
2021/03/18 05:44:57;;;;;;;6.38;2.15;;;;;;;1.64;62.28;97885.81;5010589;28;20028;-75
2021/03/18 05:47:23;;;;;;;4.20;2.25;;;;;;;1.65;62.02;97895.13;5022948;28;20120;-75
2021/03/18 05:49:49;;;;;;;3.85;1.70;;;;;;;1.65;62.25;97895.13;5025970;28;20028;-75
2021/03/18 05:52:14;;;;;;;4.70;2.00;;;;;;;1.65;62.40;97890.00;5049111;28;20032;-75
2021/03/18 05:54:46;;;;;;;4.65;1.55;;;;;;;1.46;62.04;97893.00;5027811;28;20025;-75
2021/03/18 05:57:12;;;;;;;5.53;1.80;;;;;;;1.75;61.65;97892.34;5011806;28;20494;-75
2021/03/18 05:59:39;;;;;;;4.78;2.17;;;;;;;1.68;61.88;97887.09;5026834;28;20085;-75
2021/03/18 06:02:05;;;;;;;5.00;2.20;;;;;;;1.69;62.66;97882.75;4996335;28;20029;-75
2021/03/18 06:04:30;;;;;;;4.22;2.42;;;;;;;1.79;62.32;97885.91;5028045;28;20520;-75
2021/03/18 06:06:56;;;;;;;4.80;2.50;;;;;;;1.82;62.29;97884.78;5023275;28;20098;-75
2021/03/18 06:09:21;;;;;;;4.80;2.40;;;;;;;1.84;62.31;97883.63;5045084;28;20085;-76
2021/03/18 06:11:47;;;;;;;8.10;2.80;;;;;;;1.94;62.71;97877.47;5032443;28;20434;-76
2021/03/18 06:14:12;;;;;;;7.20;3.03;;;;;;;2.02;61.65;97875.66;5016300;28;20509;-76
2021/03/18 06:16:40;;;;;;;4.97;2.28;;;;;;;2.11;60.88;97884.09;5016753;28;20035;-76
2021/03/18 06:19:07;;;;;;;5.80;2.80;;;;;;;2.33;59.98;97879.91;5049102;28;20051;-76
2021/03/18 06:21:45;;;;;;;6.85;3.45;;;;;;;2.18;59.95;97879.06;5030569;28;20695;-76
2021/03/18 06:24:11;;;;;;;10.80;3.70;;;;;;;2.31;60.16;97876.69;5009632;28;20050;-76
2021/03/18 06:26:37;;;;;;;7.43;3.30;;;;;;;2.43;60.64;97871.91;5050199;28;20032;-76
2021/03/18 06:29:30;;;;;;;5.97;2.42;;;;;;;2.27;60.44;97874.66;5033063;28;20017;-76
2021/03/18 06:31:56;;;;;;;8.07;3.75;;;;;;;2.69;59.69;97870.72;5023775;28;20063;-77
2021/03/18 06:34:53;;;;;;;24.27;9.75;;;;;;;2.45;59.26;97870.00;5013006;28;20037;-77
2021/03/18 06:37:40;;;;;;;22.90;10.30;;;;;;;2.45;58.47;97864.84;5026794;28;20552;-77
2021/03/18 06:40:05;;;;;;;14.57;5.63;;;;;;;2.84;58.13;97868.16;5027444;28;20033;-77
2021/03/18 06:42:34;;;;;;;12.45;4.50;;;;;;;2.78;57.92;97864.53;5067293;28;20043;-77
2021/03/18 06:45:12;;;;;;;6.05;2.72;;;;;;;2.74;58.26;97876.94;5032925;28;20052;-77
2021/03/18 06:47:58;;;;;;;3.75;1.83;;;;;;;3.14;57.91;97868.94;5022209;28;20032;-77
2021/03/18 06:50:28;;;;;;;3.10;1.45;;;;;;;3.24;57.50;97863.50;5002499;28;20393;-77
2021/03/18 06:52:54;;;;;;;3.65;1.63;;;;;;;3.38;57.14;97863.47;5041314;28;20040;-77
2021/03/18 06:55:31;;;;;;;4.35;1.70;;;;;;;3.29;57.03;97884.34;5045645;28;20531;-77
2021/03/18 06:58:19;;;;;;;3.78;1.45;;;;;;;3.34;56.27;97885.44;5032599;28;20032;-77
2021/03/18 07:00:48;;;;;;;2.90;1.33;;;;;;;3.73;55.20;97879.09;5003568;28;20182;-77
2021/03/18 07:03:28;;;;;;;2.65;1.42;;;;;;;3.64;55.92;97894.88;5026949;28;20025;-78
2021/03/18 07:05:54;;;;;;;4.00;1.48;;;;;;;3.92;55.66;97892.34;5017373;28;20414;-78
2021/03/18 07:08:21;;;;;;;3.90;1.55;;;;;;;3.99;55.34;97889.84;5009774;28;20070;-77
2021/03/18 07:10:48;;;;;;;3.30;1.23;;;;;;;4.35;54.80;97881.22;5016598;28;20383;-77
2021/03/18 07:13:22;;;;;;;2.95;1.35;;;;;;;4.36;54.17;97888.00;5028764;28;20037;-77
2021/03/18 07:15:50;;;;;;;3.00;1.38;;;;;;;4.62;53.29;97883.00;5068653;28;20038;-77
2021/03/18 07:18:15;;;;;;;2.58;1.45;;;;;;;4.81;52.83;97883.34;5026355;28;20059;-77
2021/03/18 07:21:03;;;;;;;2.00;1.25;;;;;;;4.64;52.80;97895.72;5033492;28;20068;-77
2021/03/18 07:23:38;;;;;;;3.10;1.33;;;;;;;4.92;52.36;97882.81;5029294;28;20029;-77
2021/03/18 07:26:14;;;;;;;5.13;1.45;;;;;;;5.02;51.87;97885.84;4995413;28;20033;-77
2021/03/18 07:28:41;;;;;;;4.55;1.27;;;;;;;5.50;51.35;97876.50;5044827;28;20097;-77
2021/03/18 07:31:06;;;;;;;3.75;1.20;;;;;;;5.79;49.74;97888.28;5017224;28;20020;-77
2021/03/18 07:33:33;;;;;;;4.35;1.50;;;;;;;5.96;50.05;97883.59;5043738;28;20025;-77
2021/03/18 07:35:59;;;;;;;1.80;1.23;;;;;;;6.17;49.04;97870.50;5034075;28;20029;-77
2021/03/18 07:38:25;;;;;;;3.10;1.38;;;;;;;6.33;49.05;97878.84;5033266;28;20568;-77
2021/03/18 07:40:51;;;;;;;2.33;1.55;;;;;;;6.45;50.09;97887.59;5027535;28;20067;-77
2021/03/18 07:43:16;;;;;;;4.35;1.83;;;;;;;6.52;50.87;97870.28;5021652;28;20028;-77
2021/03/18 07:45:42;;;;;;;2.83;1.60;;;;;;;6.74;49.95;97880.41;5012130;28;20167;-77
2021/03/18 07:48:08;;;;;;;3.35;1.67;;;;;;;7.06;49.27;97870.16;5031166;28;20028;-77
2021/03/18 07:50:36;;;;;;;3.33;1.67;;;;;;;7.12;50.11;97872.72;5007620;28;20021;-77
2021/03/18 07:53:02;;;;;;;6.45;1.67;;;;;;;7.30;49.72;97866.91;5025587;28;20024;-78
2021/03/18 07:55:31;;;;;;;3.60;1.65;;;;;;;7.57;47.62;97858.97;5037327;28;20485;-77
2021/03/18 07:57:56;;;;;;;3.88;1.65;;;;;;;8.38;44.82;97859.22;5020372;28;20433;-77
2021/03/18 08:00:24;;;;;;;4.10;1.75;;;;;;;7.71;46.92;97853.72;5020337;28;20349;-77
2021/03/18 08:02:49;;;;;;;2.85;1.30;;;;;;;8.37;44.58;97842.88;4999455;28;20110;-77
2021/03/18 08:05:39;;;;;;;3.15;1.48;;;;;;;8.16;44.05;97845.88;5007762;28;20017;-77
2021/03/18 08:08:06;;;;;;;2.30;0.90;;;;;;;8.48;43.73;97858.78;5028209;28;20086;-77
2021/03/18 08:10:31;;;;;;;3.25;1.15;;;;;;;8.33;44.24;97843.50;5035497;28;20024;-77
2021/03/18 08:13:01;;;;;;;5.22;1.63;;;;;;;7.99;44.90;97846.38;5036461;28;20127;-77
2021/03/18 08:15:31;;;;;;;1.75;1.40;;;;;;;8.01;45.06;97848.75;5033786;28;20123;-77
2021/03/18 08:18:16;;;;;;;3.63;1.45;;;;;;;7.55;46.51;97850.63;5020438;28;20039;-77
2021/03/18 08:20:48;;;;;;;2.70;1.33;;;;;;;7.76;45.65;97851.31;5029199;28;20044;-77
2021/03/18 08:23:22;;;;;;;1.90;0.98;;;;;;;7.60;46.40;97842.25;5048030;28;20032;-77
2021/03/18 08:25:52;;;;;;;2.88;1.30;;;;;;;7.50;47.84;97847.88;5068323;28;20029;-77
2021/03/18 08:28:41;;;;;;;3.80;1.35;;;;;;;7.09;48.72;97851.63;5037566;28;20024;-77
2021/03/18 08:31:16;;;;;;;3.13;1.40;;;;;;;7.16;48.94;97847.22;5036188;28;20433;-78
2021/03/18 08:33:53;;;;;;;3.10;1.45;;;;;;;6.74;48.93;97846.75;5022343;28;20037;-78
2021/03/18 08:36:36;;;;;;;1.98;1.30;;;;;;;6.73;48.17;97850.34;5046920;28;20052;-77
2021/03/18 08:39:10;;;;;;;2.88;1.45;;;;;;;6.48;48.77;97857.97;5036099;28;20124;-77
2021/03/18 08:41:45;;;;;;;4.82;1.65;;;;;;;6.48;50.67;97857.97;5050448;28;20080;-78
2021/03/18 08:44:19;;;;;;;2.83;1.45;;;;;;;6.98;49.75;97849.69;5020191;28;20399;-78
2021/03/18 08:46:52;;;;;;;4.68;1.90;;;;;;;7.11;48.74;97855.63;5053228;28;20394;-79
2021/03/18 08:49:37;;;;;;;5.88;1.63;;;;;;;7.52;46.98;97851.03;5033711;28;20036;-78
2021/03/18 08:52:20;;;;;;;2.83;1.35;;;;;;;7.04;48.78;97854.84;5019647;28;20040;-80
2021/03/18 08:54:51;;;;;;;2.95;1.70;;;;;;;7.36;48.08;97861.91;5033004;28;20060;-80
2021/03/18 08:57:19;;;;;;;3.50;1.67;;;;;;;7.27;48.55;97851.75;5060030;28;20033;-78
2021/03/18 08:59:50;;;;;;;3.42;2.00;;;;;;;7.56;47.61;97848.84;5006989;28;20396;-78
2021/03/18 09:02:17;;;;;;;4.10;1.67;;;;;;;7.57;47.55;97848.63;5019753;28;20037;-78
2021/03/18 09:04:48;;;;;;;3.95;1.60;;;;;;;7.57;48.06;97847.84;5029671;28;20051;-79
2021/03/18 09:07:21;;;;;;;2.47;1.70;;;;;;;7.53;48.00;97844.88;5042889;28;20079;-78
2021/03/18 09:09:58;;;;;;;3.63;2.30;;;;;;;7.90;47.39;97855.44;5007831;28;20029;-78
2021/03/18 09:12:23;;;;;;;4.35;1.23;;;;;;;8.11;46.76;97848.28;5020026;28;20515;-78
2021/03/18 09:14:50;;;;;;;4.45;1.58;;;;;;;7.97;47.32;97848.38;4981248;28;20151;-79
2021/03/18 09:17:15;;;;;;;4.75;1.65;;;;;;;8.46;47.01;97840.03;5022178;28;20491;-78
2021/03/18 09:19:46;;;;;;;3.45;1.48;;;;;;;8.19;46.76;97851.41;5021194;28;20028;-78
2021/03/18 09:22:16;;;;;;;3.95;1.70;;;;;;;8.21;46.52;97846.03;5019174;28;20043;-79
2021/03/18 09:24:45;;;;;;;5.28;2.20;;;;;;;8.49;45.98;97850.00;5027544;28;20032;-78
2021/03/18 09:27:14;;;;;;;5.35;1.85;;;;;;;7.99;45.13;97830.81;5018161;28;20024;-78
2021/03/18 09:29:41;;;;;;;2.50;1.90;;;;;;;8.63;45.86;97843.66;5028397;28;20035;-79
2021/03/18 09:32:07;;;;;;;4.93;2.28;;;;;;;8.37;45.75;97845.47;5031951;28;20037;-79
2021/03/18 09:34:41;;;;;;;4.95;1.70;;;;;;;8.42;44.86;97839.66;5024697;28;20033;-79
2021/03/18 09:37:07;;;;;;;4.43;1.67;;;;;;;8.63;43.77;97828.09;5034780;28;20622;-78
2021/03/18 09:39:32;;;;;;;6.20;2.03;;;;;;;9.42;43.43;97833.38;5013232;28;20100;-78
2021/03/18 09:42:01;;;;;;;3.17;1.85;;;;;;;9.53;42.75;97827.44;5029395;28;20496;-79
2021/03/18 09:44:29;;;;;;;2.78;1.67;;;;;;;9.14;42.58;97834.72;5027943;28;20033;-79
2021/03/18 09:46:59;;;;;;;5.35;2.10;;;;;;;9.50;42.69;97830.47;5011667;28;20029;-78
2021/03/18 09:49:26;;;;;;;2.40;1.50;;;;;;;10.00;42.76;97825.97;5018360;28;20020;-79
2021/03/18 09:51:53;;;;;;;4.20;1.73;;;;;;;10.49;39.65;97827.38;5019361;28;20051;-78
2021/03/18 09:54:25;;;;;;;6.13;2.42;;;;;;;10.43;40.99;97817.06;5008791;28;20039;-78
2021/03/18 09:56:52;;;;;;;4.00;1.80;;;;;;;10.77;40.61;97827.69;5028098;28;20044;-78
2021/03/18 09:59:21;;;;;;;2.38;1.45;;;;;;;10.87;39.87;97827.91;5028508;28;20041;-78
2021/03/18 10:01:48;;;;;;;2.30;1.40;;;;;;;10.97;37.88;97819.50;5026724;28;20163;-78
2021/03/18 10:04:16;;;;;;;2.92;1.42;;;;;;;11.18;36.75;97818.06;5012511;28;20061;-78
2021/03/18 10:06:48;;;;;;;2.88;1.63;;;;;;;11.12;37.93;97811.16;5013009;28;20085;-78
2021/03/18 10:09:18;;;;;;;2.67;1.27;;;;;;;10.80;36.66;97814.22;5021099;28;20029;-78
2021/03/18 10:11:47;;;;;;;2.58;1.38;;;;;;;10.86;36.90;97813.28;5040672;28;20071;-79
2021/03/18 10:14:15;;;;;;;2.72;1.10;;;;;;;11.21;37.05;97812.41;5002135;28;20055;-79
2021/03/18 10:16:42;;;;;;;2.92;1.15;;;;;;;11.53;34.02;97809.31;5014415;28;20534;-78
2021/03/18 10:19:08;;;;;;;4.25;1.20;;;;;;;11.74;35.71;97807.84;5026593;28;20044;-79
2021/03/18 10:21:34;;;;;;;2.58;1.48;;;;;;;11.75;35.60;97801.59;5014756;28;20425;-79
2021/03/18 10:24:01;;;;;;;3.63;1.25;;;;;;;12.38;32.68;97804.16;5016969;28;20978;-78
2021/03/18 10:26:28;;;;;;;2.88;0.90;;;;;;;12.66;30.71;97782.31;5010693;28;20074;-77
2021/03/18 10:29:02;;;;;;;1.52;1.10;;;;;;;12.01;32.57;97794.19;5023291;28;20111;-77
2021/03/18 10:31:29;;;;;;;6.18;2.20;;;;;;;11.85;33.09;97775.66;5033008;28;20468;-78
2021/03/18 10:33:57;;;;;;;3.22;1.83;;;;;;;11.60;35.02;97794.28;5013453;28;20028;-78
2021/03/18 10:36:37;;;;;;;3.42;1.58;;;;;;;11.44;34.98;97788.03;5008151;28;20525;-78
2021/03/18 10:39:15;;;;;;;2.40;1.60;;;;;;;11.70;33.67;97778.81;5018695;28;20491;-78
2021/03/18 10:41:53;;;;;;;3.67;1.83;;;;;;;12.06;31.98;97776.78;5025874;28;20045;-78
2021/03/18 10:44:34;;;;;;;3.42;1.70;;;;;;;11.85;33.07;97765.22;5024396;28;20426;-78
2021/03/18 10:47:24;;;;;;;6.97;2.33;;;;;;;11.50;35.27;97778.47;5032596;28;20538;-79
2021/03/18 10:50:16;;;;;;;3.90;1.55;;;;;;;11.45;36.16;97776.59;4999740;28;20079;-79
2021/03/18 10:52:58;;;;;;;3.13;1.70;;;;;;;11.29;34.22;97774.72;5005450;28;20049;-78
2021/03/18 10:55:26;;;;;;;3.65;0.90;;;;;;;10.97;32.44;97773.38;5009696;28;20113;-79
2021/03/18 10:58:01;;;;;;;1.52;0.77;;;;;;;10.62;33.77;97778.69;5032976;28;20487;-78
2021/03/18 11:00:29;;;;;;;2.50;1.77;;;;;;;10.94;32.91;97773.06;5026245;28;20048;-78
2021/03/18 11:03:03;;;;;;;3.90;1.23;;;;;;;10.69;33.59;97766.31;5017465;28;20076;-78
2021/03/18 11:05:36;;;;;;;1.63;0.60;;;;;;;10.52;31.94;97763.66;5042381;28;20701;-78
2021/03/18 11:08:04;;;;;;;1.77;0.77;;;;;;;10.99;30.54;97762.72;5001518;28;20432;-78
2021/03/18 11:10:35;;;;;;;1.33;0.70;;;;;;;10.63;32.51;97756.84;4996335;28;20025;-78
2021/03/18 11:13:05;;;;;;;2.78;1.20;;;;;;;10.88;33.08;97759.13;5011568;28;20122;-78
2021/03/18 11:15:47;;;;;;;1.98;1.20;;;;;;;10.86;33.54;97766.38;5007149;28;20020;-79
2021/03/18 11:18:15;;;;;;;2.35;0.75;;;;;;;11.13;32.42;97758.03;5036872;28;20146;-78
2021/03/18 11:20:44;;;;;;;1.60;0.85;;;;;;;11.19;31.57;97760.50;5029718;28;20036;-78
2021/03/18 11:23:11;;;;;;;1.52;0.80;;;;;;;11.05;34.46;97749.56;5004277;28;20037;-78
2021/03/18 11:25:39;;;;;;;1.40;0.77;;;;;;;11.07;34.96;97741.53;5014501;28;20471;-79
2021/03/18 11:28:05;;;;;;;3.47;1.00;;;;;;;11.25;31.75;97740.53;5020155;28;20032;-78
2021/03/18 11:30:34;;;;;;;1.17;0.88;;;;;;;10.35;33.25;97747.13;5035913;28;20032;-79
2021/03/18 11:33:15;;;;;;;1.30;0.90;;;;;;;11.01;32.82;97737.22;5015069;28;20495;-78
2021/03/18 11:35:47;;;;;;;3.33;1.45;;;;;;;10.92;32.49;97742.03;5002459;28;20082;-79
2021/03/18 11:38:13;;;;;;;3.47;1.27;;;;;;;10.81;32.37;97735.03;5008301;28;20111;-78
2021/03/18 11:40:39;;;;;;;2.47;1.30;;;;;;;10.71;31.63;97735.66;5032218;28;20475;-78
2021/03/18 11:43:05;;;;;;;1.50;1.00;;;;;;;10.76;31.83;97730.53;5024098;28;20033;-79
2021/03/18 11:45:32;;;;;;;1.60;1.20;;;;;;;11.24;30.90;97736.31;5032200;28;20066;-78
2021/03/18 11:47:58;;;;;;;1.58;1.15;;;;;;;11.24;30.34;97731.09;5019578;28;20166;-78